sensor_id;sensor_type;location;lat;lon;timestamp;P1;durP1;ratioP1;P2;durP2;ratioP2
71083;SDS011;58741;52.672;13.548;2022-07-04T00:02:19;1.23;;;1.00;;
71083;SDS011;58741;52.672;13.548;2022-07-04T00:04:44;0.93;;;0.90;;
71083;SDS011;58741;52.672;13.548;2022-07-04T00:07:10;2.78;;;1.00;;
71083;SDS011;58741;52.672;13.548;2022-07-04T00:09:35;2.72;;;1.08;;
71083;SDS011;58741;52.672;13.548;2022-07-04T00:12:01;3.47;;;0.88;;
71083;SDS011;58741;52.672;13.548;2022-07-04T00:14:26;1.52;;;0.90;;
71083;SDS011;58741;52.672;13.548;2022-07-04T00:16:52;1.25;;;1.00;;
71083;SDS011;58741;52.672;13.548;2022-07-04T00:19:17;1.00;;;0.70;;
71083;SDS011;58741;52.672;13.548;2022-07-04T00:21:43;1.95;;;1.00;;
71083;SDS011;58741;52.672;13.548;2022-07-04T00:24:09;0.80;;;0.70;;
71083;SDS011;58741;52.672;13.548;2022-07-04T00:26:34;1.17;;;0.80;;
71083;SDS011;58741;52.672;13.548;2022-07-04T00:29:00;1.55;;;1.02;;
71083;SDS011;58741;52.672;13.548;2022-07-04T00:31:25;2.65;;;1.30;;
71083;SDS011;58741;52.672;13.548;2022-07-04T00:33:51;1.40;;;0.80;;
71083;SDS011;58741;52.672;13.548;2022-07-04T00:36:16;0.63;;;0.63;;
71083;SDS011;58741;52.672;13.548;2022-07-04T00:38:42;1.50;;;0.90;;
71083;SDS011;58741;52.672;13.548;2022-07-04T00:41:07;1.70;;;0.90;;
71083;SDS011;58741;52.672;13.548;2022-07-04T00:43:33;3.08;;;1.00;;
71083;SDS011;58741;52.672;13.548;2022-07-04T00:46:02;1.60;;;0.88;;
71083;SDS011;58741;52.672;13.548;2022-07-04T00:48:28;1.58;;;1.00;;
71083;SDS011;58741;52.672;13.548;2022-07-04T00:50:54;4.03;;;1.05;;
71083;SDS011;58741;52.672;13.548;2022-07-04T00:53:21;0.98;;;0.70;;
71083;SDS011;58741;52.672;13.548;2022-07-04T00:55:50;1.00;;;0.85;;
71083;SDS011;58741;52.672;13.548;2022-07-04T00:58:20;2.25;;;0.93;;
71083;SDS011;58741;52.672;13.548;2022-07-04T01:00:47;1.10;;;0.88;;
71083;SDS011;58741;52.672;13.548;2022-07-04T01:03:13;1.23;;;0.80;;
71083;SDS011;58741;52.672;13.548;2022-07-04T01:05:38;0.98;;;0.88;;
71083;SDS011;58741;52.672;13.548;2022-07-04T01:08:05;1.27;;;1.00;;
71083;SDS011;58741;52.672;13.548;2022-07-04T01:10:32;2.55;;;0.80;;
71083;SDS011;58741;52.672;13.548;2022-07-04T01:12:57;1.00;;;0.57;;
71083;SDS011;58741;52.672;13.548;2022-07-04T01:15:23;1.90;;;0.77;;
71083;SDS011;58741;52.672;13.548;2022-07-04T01:17:48;1.60;;;0.75;;
71083;SDS011;58741;52.672;13.548;2022-07-04T01:20:14;0.93;;;0.70;;
71083;SDS011;58741;52.672;13.548;2022-07-04T01:22:40;0.88;;;0.80;;
71083;SDS011;58741;52.672;13.548;2022-07-04T01:25:06;2.67;;;0.63;;
71083;SDS011;58741;52.672;13.548;2022-07-04T01:27:33;3.67;;;0.80;;
71083;SDS011;58741;52.672;13.548;2022-07-04T01:29:58;0.80;;;0.70;;
71083;SDS011;58741;52.672;13.548;2022-07-04T01:32:24;0.82;;;0.60;;
71083;SDS011;58741;52.672;13.548;2022-07-04T01:34:50;1.08;;;0.60;;
71083;SDS011;58741;52.672;13.548;2022-07-04T01:37:15;2.35;;;0.60;;
71083;SDS011;58741;52.672;13.548;2022-07-04T01:39:41;1.13;;;0.82;;
71083;SDS011;58741;52.672;13.548;2022-07-04T01:42:07;0.70;;;0.68;;
71083;SDS011;58741;52.672;13.548;2022-07-04T01:44:32;1.27;;;0.90;;
71083;SDS011;58741;52.672;13.548;2022-07-04T01:46:58;8.93;;;1.20;;
71083;SDS011;58741;52.672;13.548;2022-07-04T01:49:24;2.67;;;0.80;;
71083;SDS011;58741;52.672;13.548;2022-07-04T01:51:50;1.13;;;0.68;;
71083;SDS011;58741;52.672;13.548;2022-07-04T01:54:16;2.72;;;0.70;;
71083;SDS011;58741;52.672;13.548;2022-07-04T01:56:42;1.90;;;0.85;;
71083;SDS011;58741;52.672;13.548;2022-07-04T01:59:08;1.52;;;0.95;;
71083;SDS011;58741;52.672;13.548;2022-07-04T02:01:34;0.60;;;0.60;;
71083;SDS011;58741;52.672;13.548;2022-07-04T02:04:01;2.30;;;1.27;;
71083;SDS011;58741;52.672;13.548;2022-07-04T02:06:28;1.98;;;0.77;;
71083;SDS011;58741;52.672;13.548;2022-07-04T02:08:54;2.35;;;1.23;;
71083;SDS011;58741;52.672;13.548;2022-07-04T02:11:38;1.27;;;0.90;;
71083;SDS011;58741;52.672;13.548;2022-07-04T02:14:23;1.98;;;1.10;;
71083;SDS011;58741;52.672;13.548;2022-07-04T02:16:48;2.60;;;1.20;;
71083;SDS011;58741;52.672;13.548;2022-07-04T02:19:14;1.17;;;1.08;;
71083;SDS011;58741;52.672;13.548;2022-07-04T02:21:40;2.65;;;0.98;;
71083;SDS011;58741;52.672;13.548;2022-07-04T02:24:05;2.05;;;0.90;;
71083;SDS011;58741;52.672;13.548;2022-07-04T02:26:31;2.40;;;0.80;;
71083;SDS011;58741;52.672;13.548;2022-07-04T02:28:56;4.20;;;1.10;;
71083;SDS011;58741;52.672;13.548;2022-07-04T02:31:22;0.77;;;0.70;;
71083;SDS011;58741;52.672;13.548;2022-07-04T02:33:48;1.88;;;1.20;;
71083;SDS011;58741;52.672;13.548;2022-07-04T02:36:13;2.03;;;1.10;;
71083;SDS011;58741;52.672;13.548;2022-07-04T02:38:39;1.45;;;1.10;;
71083;SDS011;58741;52.672;13.548;2022-07-04T02:41:04;1.40;;;0.90;;
71083;SDS011;58741;52.672;13.548;2022-07-04T02:43:30;1.45;;;1.15;;
71083;SDS011;58741;52.672;13.548;2022-07-04T02:45:55;1.83;;;1.15;;
71083;SDS011;58741;52.672;13.548;2022-07-04T02:48:21;1.92;;;1.17;;
71083;SDS011;58741;52.672;13.548;2022-07-04T02:50:46;1.77;;;1.33;;
71083;SDS011;58741;52.672;13.548;2022-07-04T02:53:12;1.52;;;1.33;;
71083;SDS011;58741;52.672;13.548;2022-07-04T02:55:37;1.52;;;1.27;;
71083;SDS011;58741;52.672;13.548;2022-07-04T02:58:03;1.30;;;1.20;;
71083;SDS011;58741;52.672;13.548;2022-07-04T03:00:28;2.42;;;1.48;;
71083;SDS011;58741;52.672;13.548;2022-07-04T03:02:54;2.95;;;1.38;;
71083;SDS011;58741;52.672;13.548;2022-07-04T03:05:20;1.73;;;1.45;;
71083;SDS011;58741;52.672;13.548;2022-07-04T03:07:45;2.45;;;1.48;;
71083;SDS011;58741;52.672;13.548;2022-07-04T03:10:11;3.58;;;1.75;;
71083;SDS011;58741;52.672;13.548;2022-07-04T03:12:36;2.67;;;1.52;;
71083;SDS011;58741;52.672;13.548;2022-07-04T03:15:02;4.30;;;1.95;;
71083;SDS011;58741;52.672;13.548;2022-07-04T03:17:28;3.42;;;1.63;;
71083;SDS011;58741;52.672;13.548;2022-07-04T03:19:55;2.72;;;2.20;;
71083;SDS011;58741;52.672;13.548;2022-07-04T03:22:23;2.83;;;1.90;;
71083;SDS011;58741;52.672;13.548;2022-07-04T03:24:49;3.97;;;1.80;;
71083;SDS011;58741;52.672;13.548;2022-07-04T03:27:14;1.95;;;1.75;;
71083;SDS011;58741;52.672;13.548;2022-07-04T03:29:40;2.20;;;2.03;;
71083;SDS011;58741;52.672;13.548;2022-07-04T03:32:06;3.55;;;2.17;;
71083;SDS011;58741;52.672;13.548;2022-07-04T03:34:31;3.08;;;2.50;;
71083;SDS011;58741;52.672;13.548;2022-07-04T03:36:57;4.05;;;2.35;;
71083;SDS011;58741;52.672;13.548;2022-07-04T03:39:23;3.63;;;2.10;;
71083;SDS011;58741;52.672;13.548;2022-07-04T03:41:48;2.92;;;1.90;;
71083;SDS011;58741;52.672;13.548;2022-07-04T03:44:14;2.50;;;2.08;;
71083;SDS011;58741;52.672;13.548;2022-07-04T03:46:39;3.70;;;2.15;;
71083;SDS011;58741;52.672;13.548;2022-07-04T03:49:05;2.38;;;2.17;;
71083;SDS011;58741;52.672;13.548;2022-07-04T03:51:31;3.22;;;2.63;;
71083;SDS011;58741;52.672;13.548;2022-07-04T03:53:56;5.22;;;2.42;;
71083;SDS011;58741;52.672;13.548;2022-07-04T03:56:22;3.53;;;2.83;;
71083;SDS011;58741;52.672;13.548;2022-07-04T03:58:47;3.85;;;3.17;;
71083;SDS011;58741;52.672;13.548;2022-07-04T04:01:17;3.83;;;3.35;;
71083;SDS011;58741;52.672;13.548;2022-07-04T04:03:43;3.53;;;3.08;;
71083;SDS011;58741;52.672;13.548;2022-07-04T04:06:28;3.63;;;3.05;;
71083;SDS011;58741;52.672;13.548;2022-07-04T04:08:54;3.05;;;2.83;;
71083;SDS011;58741;52.672;13.548;2022-07-04T04:11:19;3.70;;;3.38;;
71083;SDS011;58741;52.672;13.548;2022-07-04T04:13:45;4.55;;;3.22;;
71083;SDS011;58741;52.672;13.548;2022-07-04T04:16:10;6.97;;;3.65;;
71083;SDS011;58741;52.672;13.548;2022-07-04T04:18:36;5.38;;;3.60;;
71083;SDS011;58741;52.672;13.548;2022-07-04T04:21:02;3.35;;;3.03;;
71083;SDS011;58741;52.672;13.548;2022-07-04T04:23:28;3.83;;;3.45;;
71083;SDS011;58741;52.672;13.548;2022-07-04T04:25:53;4.85;;;3.45;;
71083;SDS011;58741;52.672;13.548;2022-07-04T04:28:19;4.18;;;2.90;;
71083;SDS011;58741;52.672;13.548;2022-07-04T04:30:45;5.35;;;2.92;;
71083;SDS011;58741;52.672;13.548;2022-07-04T04:33:10;3.13;;;2.80;;
71083;SDS011;58741;52.672;13.548;2022-07-04T04:35:36;3.03;;;2.70;;
71083;SDS011;58741;52.672;13.548;2022-07-04T04:38:01;3.13;;;2.90;;
71083;SDS011;58741;52.672;13.548;2022-07-04T04:40:27;3.05;;;2.75;;
71083;SDS011;58741;52.672;13.548;2022-07-04T04:42:52;3.35;;;2.88;;
71083;SDS011;58741;52.672;13.548;2022-07-04T04:45:18;4.32;;;3.85;;
71083;SDS011;58741;52.672;13.548;2022-07-04T04:47:43;5.22;;;3.50;;
71083;SDS011;58741;52.672;13.548;2022-07-04T04:50:09;3.47;;;2.92;;
71083;SDS011;58741;52.672;13.548;2022-07-04T04:52:40;3.22;;;2.92;;
71083;SDS011;58741;52.672;13.548;2022-07-04T04:55:06;4.25;;;3.28;;
71083;SDS011;58741;52.672;13.548;2022-07-04T04:57:32;4.22;;;2.83;;
71083;SDS011;58741;52.672;13.548;2022-07-04T04:59:58;6.30;;;3.25;;
71083;SDS011;58741;52.672;13.548;2022-07-04T05:02:24;4.57;;;3.03;;
71083;SDS011;58741;52.672;13.548;2022-07-04T05:04:49;3.88;;;2.50;;
71083;SDS011;58741;52.672;13.548;2022-07-04T05:07:15;2.55;;;2.20;;
71083;SDS011;58741;52.672;13.548;2022-07-04T05:09:40;3.42;;;2.28;;
71083;SDS011;58741;52.672;13.548;2022-07-04T05:12:06;3.33;;;2.30;;
71083;SDS011;58741;52.672;13.548;2022-07-04T05:14:32;2.25;;;2.08;;
71083;SDS011;58741;52.672;13.548;2022-07-04T05:16:57;3.25;;;2.13;;
71083;SDS011;58741;52.672;13.548;2022-07-04T05:19:23;2.25;;;2.05;;
71083;SDS011;58741;52.672;13.548;2022-07-04T05:21:48;2.90;;;2.13;;
71083;SDS011;58741;52.672;13.548;2022-07-04T05:24:14;2.72;;;2.40;;
71083;SDS011;58741;52.672;13.548;2022-07-04T05:26:39;3.58;;;2.40;;
71083;SDS011;58741;52.672;13.548;2022-07-04T05:29:05;2.70;;;2.15;;
71083;SDS011;58741;52.672;13.548;2022-07-04T05:31:30;2.45;;;2.00;;
71083;SDS011;58741;52.672;13.548;2022-07-04T05:33:57;2.10;;;1.90;;
71083;SDS011;58741;52.672;13.548;2022-07-04T05:36:23;2.53;;;2.03;;
71083;SDS011;58741;52.672;13.548;2022-07-04T05:38:48;3.25;;;2.10;;
71083;SDS011;58741;52.672;13.548;2022-07-04T05:41:14;2.22;;;1.83;;
71083;SDS011;58741;52.672;13.548;2022-07-04T05:43:40;2.30;;;1.60;;
71083;SDS011;58741;52.672;13.548;2022-07-04T05:46:05;3.85;;;1.67;;
71083;SDS011;58741;52.672;13.548;2022-07-04T05:48:31;1.92;;;1.50;;
71083;SDS011;58741;52.672;13.548;2022-07-04T05:50:56;3.17;;;1.58;;
71083;SDS011;58741;52.672;13.548;2022-07-04T05:53:22;1.58;;;1.48;;
71083;SDS011;58741;52.672;13.548;2022-07-04T05:55:47;1.95;;;1.60;;
71083;SDS011;58741;52.672;13.548;2022-07-04T05:58:13;1.75;;;1.50;;
71083;SDS011;58741;52.672;13.548;2022-07-04T06:00:39;3.95;;;1.52;;
71083;SDS011;58741;52.672;13.548;2022-07-04T06:03:05;2.13;;;1.30;;
71083;SDS011;58741;52.672;13.548;2022-07-04T06:05:31;1.73;;;1.42;;
71083;SDS011;58741;52.672;13.548;2022-07-04T06:07:57;2.08;;;1.42;;
71083;SDS011;58741;52.672;13.548;2022-07-04T06:10:22;2.17;;;1.58;;
71083;SDS011;58741;52.672;13.548;2022-07-04T06:12:48;1.35;;;1.17;;
71083;SDS011;58741;52.672;13.548;2022-07-04T06:15:14;2.58;;;1.10;;
71083;SDS011;58741;52.672;13.548;2022-07-04T06:17:40;4.47;;;1.08;;
71083;SDS011;58741;52.672;13.548;2022-07-04T06:20:06;5.63;;;1.20;;
71083;SDS011;58741;52.672;13.548;2022-07-04T06:22:42;1.83;;;1.00;;
71083;SDS011;58741;52.672;13.548;2022-07-04T06:25:10;1.58;;;1.13;;
71083;SDS011;58741;52.672;13.548;2022-07-04T06:27:40;3.08;;;1.45;;
71083;SDS011;58741;52.672;13.548;2022-07-04T06:30:07;1.67;;;1.20;;
71083;SDS011;58741;52.672;13.548;2022-07-04T06:32:43;2.50;;;1.33;;
71083;SDS011;58741;52.672;13.548;2022-07-04T06:35:13;5.53;;;1.10;;
71083;SDS011;58741;52.672;13.548;2022-07-04T06:38:00;6.45;;;1.20;;
71083;SDS011;58741;52.672;13.548;2022-07-04T06:40:26;3.85;;;0.90;;
71083;SDS011;58741;52.672;13.548;2022-07-04T06:42:51;0.90;;;0.70;;
71083;SDS011;58741;52.672;13.548;2022-07-04T06:45:17;1.88;;;1.02;;
71083;SDS011;58741;52.672;13.548;2022-07-04T06:47:43;0.82;;;0.68;;
71083;SDS011;58741;52.672;13.548;2022-07-04T06:50:09;1.02;;;0.77;;
71083;SDS011;58741;52.672;13.548;2022-07-04T06:52:35;2.28;;;0.90;;
71083;SDS011;58741;52.672;13.548;2022-07-04T06:55:00;0.90;;;0.60;;
71083;SDS011;58741;52.672;13.548;2022-07-04T06:57:26;0.60;;;0.50;;
71083;SDS011;58741;52.672;13.548;2022-07-04T06:59:51;1.77;;;0.60;;
71083;SDS011;58741;52.672;13.548;2022-07-04T07:02:17;2.60;;;0.70;;
71083;SDS011;58741;52.672;13.548;2022-07-04T07:04:42;0.65;;;0.40;;
71083;SDS011;58741;52.672;13.548;2022-07-04T07:07:08;0.95;;;0.45;;
71083;SDS011;58741;52.672;13.548;2022-07-04T07:09:34;0.95;;;0.50;;
71083;SDS011;58741;52.672;13.548;2022-07-04T07:12:00;0.60;;;0.40;;
71083;SDS011;58741;52.672;13.548;2022-07-04T07:14:25;2.30;;;0.55;;
71083;SDS011;58741;52.672;13.548;2022-07-04T07:16:51;2.53;;;0.45;;
71083;SDS011;58741;52.672;13.548;2022-07-04T07:19:17;1.70;;;0.50;;
71083;SDS011;58741;52.672;13.548;2022-07-04T07:21:42;0.60;;;0.35;;
71083;SDS011;58741;52.672;13.548;2022-07-04T07:24:08;1.08;;;0.40;;
71083;SDS011;58741;52.672;13.548;2022-07-04T07:26:33;2.85;;;0.40;;
71083;SDS011;58741;52.672;13.548;2022-07-04T07:28:59;0.80;;;0.40;;
71083;SDS011;58741;52.672;13.548;2022-07-04T07:31:24;0.82;;;0.28;;
71083;SDS011;58741;52.672;13.548;2022-07-04T07:33:50;0.40;;;0.30;;
71083;SDS011;58741;52.672;13.548;2022-07-04T07:36:15;1.95;;;0.60;;
71083;SDS011;58741;52.672;13.548;2022-07-04T07:38:41;0.98;;;0.38;;
71083;SDS011;58741;52.672;13.548;2022-07-04T07:41:07;0.38;;;0.30;;
71083;SDS011;58741;52.672;13.548;2022-07-04T07:43:34;1.65;;;0.30;;
71083;SDS011;58741;52.672;13.548;2022-07-04T07:45:59;3.80;;;0.60;;
71083;SDS011;58741;52.672;13.548;2022-07-04T07:48:25;3.42;;;0.30;;
71083;SDS011;58741;52.672;13.548;2022-07-04T07:50:51;0.95;;;0.40;;
71083;SDS011;58741;52.672;13.548;2022-07-04T07:53:17;3.13;;;0.40;;
71083;SDS011;58741;52.672;13.548;2022-07-04T07:55:42;0.95;;;0.40;;
71083;SDS011;58741;52.672;13.548;2022-07-04T07:58:08;0.90;;;0.38;;
71083;SDS011;58741;52.672;13.548;2022-07-04T08:00:33;0.30;;;0.30;;
71083;SDS011;58741;52.672;13.548;2022-07-04T08:02:59;0.65;;;0.38;;
71083;SDS011;58741;52.672;13.548;2022-07-04T08:05:43;0.70;;;0.40;;
71083;SDS011;58741;52.672;13.548;2022-07-04T08:08:09;0.98;;;0.40;;
71083;SDS011;58741;52.672;13.548;2022-07-04T08:10:35;0.50;;;0.30;;
71083;SDS011;58741;52.672;13.548;2022-07-04T08:13:02;2.13;;;0.40;;
71083;SDS011;58741;52.672;13.548;2022-07-04T08:15:28;1.80;;;0.60;;
71083;SDS011;58741;52.672;13.548;2022-07-04T08:17:54;2.45;;;0.57;;
71083;SDS011;58741;52.672;13.548;2022-07-04T08:20:19;0.85;;;0.40;;
71083;SDS011;58741;52.672;13.548;2022-07-04T08:22:45;0.57;;;0.40;;
71083;SDS011;58741;52.672;13.548;2022-07-04T08:25:10;1.00;;;0.68;;
71083;SDS011;58741;52.672;13.548;2022-07-04T08:27:39;12.13;;;0.85;;
71083;SDS011;58741;52.672;13.548;2022-07-04T08:30:04;3.17;;;0.57;;
71083;SDS011;58741;52.672;13.548;2022-07-04T08:32:30;3.55;;;0.35;;
71083;SDS011;58741;52.672;13.548;2022-07-04T08:34:56;1.38;;;0.50;;
71083;SDS011;58741;52.672;13.548;2022-07-04T08:37:22;2.60;;;0.40;;
71083;SDS011;58741;52.672;13.548;2022-07-04T08:39:48;3.60;;;0.40;;
71083;SDS011;58741;52.672;13.548;2022-07-04T08:42:15;0.65;;;0.43;;
71083;SDS011;58741;52.672;13.548;2022-07-04T08:44:42;0.85;;;0.50;;
71083;SDS011;58741;52.672;13.548;2022-07-04T08:47:12;1.40;;;0.52;;
71083;SDS011;58741;52.672;13.548;2022-07-04T08:49:44;1.05;;;0.63;;
71083;SDS011;58741;52.672;13.548;2022-07-04T08:52:17;7.20;;;0.60;;
71083;SDS011;58741;52.672;13.548;2022-07-04T08:54:55;1.27;;;0.50;;
71083;SDS011;58741;52.672;13.548;2022-07-04T08:57:40;0.55;;;0.38;;
71083;SDS011;58741;52.672;13.548;2022-07-04T09:00:24;1.77;;;0.55;;
71083;SDS011;58741;52.672;13.548;2022-07-04T09:02:50;0.60;;;0.47;;
71083;SDS011;58741;52.672;13.548;2022-07-04T09:05:16;0.60;;;0.40;;
71083;SDS011;58741;52.672;13.548;2022-07-04T09:07:42;1.20;;;0.43;;
71083;SDS011;58741;52.672;13.548;2022-07-04T09:10:09;2.00;;;0.45;;
71083;SDS011;58741;52.672;13.548;2022-07-04T09:12:34;1.15;;;0.50;;
71083;SDS011;58741;52.672;13.548;2022-07-04T09:15:00;1.15;;;0.60;;
71083;SDS011;58741;52.672;13.548;2022-07-04T09:17:26;2.50;;;0.60;;
71083;SDS011;58741;52.672;13.548;2022-07-04T09:20:14;3.70;;;0.70;;
71083;SDS011;58741;52.672;13.548;2022-07-04T09:22:41;1.10;;;0.50;;
71083;SDS011;58741;52.672;13.548;2022-07-04T09:25:07;3.05;;;0.77;;
71083;SDS011;58741;52.672;13.548;2022-07-04T09:27:37;0.80;;;0.50;;
71083;SDS011;58741;52.672;13.548;2022-07-04T09:30:05;1.75;;;0.70;;
71083;SDS011;58741;52.672;13.548;2022-07-04T09:35:04;0.60;;;0.40;;
71083;SDS011;58741;52.672;13.548;2022-07-04T09:37:33;0.40;;;0.30;;
71083;SDS011;58741;52.672;13.548;2022-07-04T09:42:35;1.13;;;0.50;;
71083;SDS011;58741;52.672;13.548;2022-07-04T09:45:09;0.93;;;0.47;;
71083;SDS011;58741;52.672;13.548;2022-07-04T09:47:36;0.75;;;0.57;;
71083;SDS011;58741;52.672;13.548;2022-07-04T09:50:03;1.30;;;0.55;;
71083;SDS011;58741;52.672;13.548;2022-07-04T09:52:31;7.95;;;0.63;;
71083;SDS011;58741;52.672;13.548;2022-07-04T09:54:58;2.20;;;0.50;;
71083;SDS011;58741;52.672;13.548;2022-07-04T09:57:30;2.25;;;0.57;;
71083;SDS011;58741;52.672;13.548;2022-07-04T09:59:57;2.08;;;0.57;;
71083;SDS011;58741;52.672;13.548;2022-07-04T10:02:41;3.58;;;0.45;;
71083;SDS011;58741;52.672;13.548;2022-07-04T10:05:07;1.00;;;0.50;;
71083;SDS011;58741;52.672;13.548;2022-07-04T10:07:34;0.68;;;0.50;;
71083;SDS011;58741;52.672;13.548;2022-07-04T10:12:54;2.95;;;0.60;;
71083;SDS011;58741;52.672;13.548;2022-07-04T10:15:21;1.05;;;0.43;;
71083;SDS011;58741;52.672;13.548;2022-07-04T10:17:47;1.00;;;0.50;;
71083;SDS011;58741;52.672;13.548;2022-07-04T10:20:14;0.75;;;0.40;;
71083;SDS011;58741;52.672;13.548;2022-07-04T10:22:40;1.98;;;0.70;;
71083;SDS011;58741;52.672;13.548;2022-07-04T10:25:06;2.00;;;0.40;;
71083;SDS011;58741;52.672;13.548;2022-07-04T10:27:33;2.97;;;0.70;;
71083;SDS011;58741;52.672;13.548;2022-07-04T10:30:00;0.50;;;0.40;;
71083;SDS011;58741;52.672;13.548;2022-07-04T10:32:28;1.23;;;0.50;;
71083;SDS011;58741;52.672;13.548;2022-07-04T10:34:54;1.77;;;0.40;;
71083;SDS011;58741;52.672;13.548;2022-07-04T10:37:20;1.15;;;0.50;;
71083;SDS011;58741;52.672;13.548;2022-07-04T10:39:46;1.17;;;0.40;;
71083;SDS011;58741;52.672;13.548;2022-07-04T10:42:23;1.02;;;0.40;;
71083;SDS011;58741;52.672;13.548;2022-07-04T10:44:49;1.80;;;0.60;;
71083;SDS011;58741;52.672;13.548;2022-07-04T10:47:25;1.10;;;0.68;;
71083;SDS011;58741;52.672;13.548;2022-07-04T10:49:55;1.83;;;0.60;;
71083;SDS011;58741;52.672;13.548;2022-07-04T10:52:21;1.08;;;0.47;;
71083;SDS011;58741;52.672;13.548;2022-07-04T10:54:47;0.95;;;0.40;;
71083;SDS011;58741;52.672;13.548;2022-07-04T10:57:22;0.95;;;0.50;;
71083;SDS011;58741;52.672;13.548;2022-07-04T11:04:47;1.42;;;0.57;;
71083;SDS011;58741;52.672;13.548;2022-07-04T11:07:15;0.57;;;0.40;;
71083;SDS011;58741;52.672;13.548;2022-07-04T11:09:43;1.75;;;0.52;;
71083;SDS011;58741;52.672;13.548;2022-07-04T11:12:10;1.27;;;0.40;;
71083;SDS011;58741;52.672;13.548;2022-07-04T11:14:40;1.30;;;0.50;;
71083;SDS011;58741;52.672;13.548;2022-07-04T11:17:07;3.42;;;0.70;;
71083;SDS011;58741;52.672;13.548;2022-07-04T11:19:46;1.30;;;0.60;;
71083;SDS011;58741;52.672;13.548;2022-07-04T11:22:12;0.88;;;0.30;;
71083;SDS011;58741;52.672;13.548;2022-07-04T11:24:47;1.98;;;0.50;;
71083;SDS011;58741;52.672;13.548;2022-07-04T11:27:13;1.15;;;0.52;;
71083;SDS011;58741;52.672;13.548;2022-07-04T11:29:41;1.85;;;0.50;;
71083;SDS011;58741;52.672;13.548;2022-07-04T11:32:17;1.35;;;0.50;;
71083;SDS011;58741;52.672;13.548;2022-07-04T11:34:44;1.38;;;0.70;;
71083;SDS011;58741;52.672;13.548;2022-07-04T11:37:11;0.43;;;0.40;;
71083;SDS011;58741;52.672;13.548;2022-07-04T11:39:36;0.73;;;0.50;;
71083;SDS011;58741;52.672;13.548;2022-07-04T11:42:02;1.60;;;0.70;;
71083;SDS011;58741;52.672;13.548;2022-07-04T11:44:46;2.65;;;0.32;;
71083;SDS011;58741;52.672;13.548;2022-07-04T11:49:54;1.40;;;0.50;;
71083;SDS011;58741;52.672;13.548;2022-07-04T11:52:22;1.95;;;0.50;;
71083;SDS011;58741;52.672;13.548;2022-07-04T11:54:53;0.70;;;0.50;;
71083;SDS011;58741;52.672;13.548;2022-07-04T11:57:26;1.15;;;0.50;;
71083;SDS011;58741;52.672;13.548;2022-07-04T11:59:57;0.43;;;0.35;;
71083;SDS011;58741;52.672;13.548;2022-07-04T12:02:24;3.13;;;0.70;;
71083;SDS011;58741;52.672;13.548;2022-07-04T12:04:51;0.70;;;0.45;;
71083;SDS011;58741;52.672;13.548;2022-07-04T12:07:18;1.58;;;0.50;;
71083;SDS011;58741;52.672;13.548;2022-07-04T12:09:45;0.40;;;0.35;;
71083;SDS011;58741;52.672;13.548;2022-07-04T12:12:12;0.40;;;0.30;;
71083;SDS011;58741;52.672;13.548;2022-07-04T12:14:40;1.13;;;0.47;;
71083;SDS011;58741;52.672;13.548;2022-07-04T12:17:21;0.80;;;0.40;;
71083;SDS011;58741;52.672;13.548;2022-07-04T12:19:54;1.52;;;0.50;;
71083;SDS011;58741;52.672;13.548;2022-07-04T12:22:31;0.73;;;0.30;;
71083;SDS011;58741;52.672;13.548;2022-07-04T12:25:05;0.73;;;0.60;;
71083;SDS011;58741;52.672;13.548;2022-07-04T12:27:32;1.10;;;0.50;;
71083;SDS011;58741;52.672;13.548;2022-07-04T12:29:59;1.33;;;0.60;;
71083;SDS011;58741;52.672;13.548;2022-07-04T12:32:58;0.73;;;0.40;;
71083;SDS011;58741;52.672;13.548;2022-07-04T12:40:37;2.17;;;0.50;;
71083;SDS011;58741;52.672;13.548;2022-07-04T12:43:14;6.47;;;0.52;;
71083;SDS011;58741;52.672;13.548;2022-07-04T12:45:47;1.65;;;0.50;;
71083;SDS011;58741;52.672;13.548;2022-07-04T12:48:14;0.30;;;0.30;;
71083;SDS011;58741;52.672;13.548;2022-07-04T12:50:41;1.00;;;0.40;;
71083;SDS011;58741;52.672;13.548;2022-07-04T12:53:06;0.45;;;0.35;;
71083;SDS011;58741;52.672;13.548;2022-07-04T12:55:32;1.33;;;0.40;;
71083;SDS011;58741;52.672;13.548;2022-07-04T12:57:57;0.60;;;0.30;;
71083;SDS011;58741;52.672;13.548;2022-07-04T13:00:23;0.82;;;0.45;;
71083;SDS011;58741;52.672;13.548;2022-07-04T13:02:49;0.22;;;0.20;;
71083;SDS011;58741;52.672;13.548;2022-07-04T13:05:15;0.73;;;0.30;;
71083;SDS011;58741;52.672;13.548;2022-07-04T13:07:41;2.45;;;0.47;;
71083;SDS011;58741;52.672;13.548;2022-07-04T13:10:07;0.60;;;0.40;;
71083;SDS011;58741;52.672;13.548;2022-07-04T13:12:32;0.88;;;0.50;;
71083;SDS011;58741;52.672;13.548;2022-07-04T13:14:58;1.75;;;0.47;;
71083;SDS011;58741;52.672;13.548;2022-07-04T13:17:25;0.57;;;0.38;;
71083;SDS011;58741;52.672;13.548;2022-07-04T13:19:51;1.83;;;0.40;;
71083;SDS011;58741;52.672;13.548;2022-07-04T13:22:18;1.60;;;0.60;;
71083;SDS011;58741;52.672;13.548;2022-07-04T13:24:44;0.47;;;0.47;;
71083;SDS011;58741;52.672;13.548;2022-07-04T13:27:10;0.70;;;0.40;;
71083;SDS011;58741;52.672;13.548;2022-07-04T13:29:36;0.52;;;0.40;;
71083;SDS011;58741;52.672;13.548;2022-07-04T13:32:02;0.40;;;0.40;;
71083;SDS011;58741;52.672;13.548;2022-07-04T13:34:28;0.60;;;0.32;;
71083;SDS011;58741;52.672;13.548;2022-07-04T13:36:54;1.58;;;0.77;;
71083;SDS011;58741;52.672;13.548;2022-07-04T13:39:20;0.57;;;0.40;;
71083;SDS011;58741;52.672;13.548;2022-07-04T13:41:47;0.40;;;0.40;;
71083;SDS011;58741;52.672;13.548;2022-07-04T13:44:12;1.40;;;0.45;;
71083;SDS011;58741;52.672;13.548;2022-07-04T13:46:41;0.88;;;0.40;;
71083;SDS011;58741;52.672;13.548;2022-07-04T13:49:07;1.33;;;0.40;;
71083;SDS011;58741;52.672;13.548;2022-07-04T13:51:32;2.92;;;0.70;;
71083;SDS011;58741;52.672;13.548;2022-07-04T13:53:58;0.73;;;0.43;;
71083;SDS011;58741;52.672;13.548;2022-07-04T13:56:24;1.38;;;0.50;;
71083;SDS011;58741;52.672;13.548;2022-07-04T13:58:50;0.32;;;0.30;;
71083;SDS011;58741;52.672;13.548;2022-07-04T14:01:16;0.35;;;0.35;;
71083;SDS011;58741;52.672;13.548;2022-07-04T14:03:44;1.67;;;0.40;;
71083;SDS011;58741;52.672;13.548;2022-07-04T14:06:09;2.17;;;0.47;;
71083;SDS011;58741;52.672;13.548;2022-07-04T14:08:35;0.50;;;0.30;;
71083;SDS011;58741;52.672;13.548;2022-07-04T14:11:01;2.53;;;0.50;;
71083;SDS011;58741;52.672;13.548;2022-07-04T14:13:26;2.05;;;0.60;;
71083;SDS011;58741;52.672;13.548;2022-07-04T14:15:53;1.30;;;0.50;;
71083;SDS011;58741;52.672;13.548;2022-07-04T14:18:18;1.73;;;0.55;;
71083;SDS011;58741;52.672;13.548;2022-07-04T14:20:44;0.98;;;0.40;;
71083;SDS011;58741;52.672;13.548;2022-07-04T14:23:10;1.02;;;0.50;;
71083;SDS011;58741;52.672;13.548;2022-07-04T14:25:36;0.47;;;0.40;;
71083;SDS011;58741;52.672;13.548;2022-07-04T14:28:02;2.47;;;0.40;;
71083;SDS011;58741;52.672;13.548;2022-07-04T14:30:28;0.60;;;0.40;;
71083;SDS011;58741;52.672;13.548;2022-07-04T14:32:54;1.67;;;0.50;;
71083;SDS011;58741;52.672;13.548;2022-07-04T14:35:19;2.53;;;0.40;;
71083;SDS011;58741;52.672;13.548;2022-07-04T14:37:45;1.60;;;0.45;;
71083;SDS011;58741;52.672;13.548;2022-07-04T14:40:11;0.93;;;0.40;;
71083;SDS011;58741;52.672;13.548;2022-07-04T14:42:37;11.23;;;0.85;;
71083;SDS011;58741;52.672;13.548;2022-07-04T14:45:03;1.83;;;0.40;;
71083;SDS011;58741;52.672;13.548;2022-07-04T14:47:28;0.43;;;0.32;;
71083;SDS011;58741;52.672;13.548;2022-07-04T14:49:56;0.98;;;0.35;;
71083;SDS011;58741;52.672;13.548;2022-07-04T14:52:22;2.72;;;0.63;;
71083;SDS011;58741;52.672;13.548;2022-07-04T14:54:47;2.30;;;0.40;;